Time;durP1;ratioP1;P1;durP2;ratioP2;P2;SDS_P1;SDS_P2;PMS_P1;PMS_P2;Temp;Humidity;BMP_temperature;BMP_pressure;BME280_temperature;BME280_humidity;BME280_pressure;Samples;Min_cycle;Max_cycle;Signal;HPM_P1;HPM_P2
2022/07/20 00:00:27;;;;;;;7.90;6.60;;;26.60;16.60;;;;;;5106144;28;20454;-79
2022/07/20 00:02:53;;;;;;;6.33;5.77;;;26.50;17.30;;;;;;5105864;28;21075;-80
2022/07/20 00:05:20;;;;;;;11.03;7.13;;;26.40;17.80;;;;;;5107861;28;20549;-78
2022/07/20 00:07:47;;;;;;;8.90;6.97;;;26.20;17.90;;;;;;5105634;28;20484;-78
2022/07/20 00:12:58;;;;;;;10.13;6.30;;;26.00;18.20;;;;;;5102657;28;20498;-78
2022/07/20 00:15:27;;;;;;;9.50;5.87;;;26.20;17.30;;;;;;5109666;28;20460;-77
2022/07/20 00:17:53;;;;;;;7.33;6.50;;;26.50;16.60;;;;;;5120055;28;20454;-76
2022/07/20 00:20:20;;;;;;;6.97;6.27;;;26.50;16.60;;;;;;5116345;28;20513;-78
2022/07/20 00:22:47;;;;;;;10.20;6.43;;;26.60;16.60;;;;;;5099920;28;20949;-78
2022/07/20 00:25:14;;;;;;;7.57;5.70;;;26.60;16.60;;;;;;5096530;28;20521;-78
2022/07/20 00:27:41;;;;;;;10.90;7.20;;;26.70;16.70;;;;;;5097196;28;20799;-78
2022/07/20 00:30:10;;;;;;;8.50;6.53;;;26.70;16.70;;;;;;5098352;28;20450;-78
2022/07/20 00:32:38;;;;;;;7.77;6.97;;;26.80;16.70;;;;;;5099327;28;20501;-78
2022/07/20 00:35:06;;;;;;;10.47;6.60;;;26.80;16.70;;;;;;5097402;28;20905;-77
2022/07/20 00:37:33;;;;;;;10.00;6.00;;;26.60;16.60;;;;;;5096593;28;20458;-78
2022/07/20 00:40:00;;;;;;;9.57;6.50;;;26.40;17.70;;;;;;5096813;28;20550;-78
2022/07/20 00:42:27;;;;;;;7.30;6.00;;;26.20;17.60;;;;;;5100718;28;20494;-79
2022/07/20 00:44:54;;;;;;;8.27;5.87;;;26.10;18.00;;;;;;5096108;28;20501;-77
2022/07/20 00:47:21;;;;;;;8.23;6.87;;;26.00;18.50;;;;;;5095088;28;20959;-76
2022/07/20 00:49:49;;;;;;;8.30;6.30;;;26.00;18.60;;;;;;5096242;28;20813;-78
2022/07/20 00:52:16;;;;;;;8.90;6.13;;;26.00;19.20;;;;;;5095993;28;20441;-77
2022/07/20 00:54:45;;;;;;;7.20;6.30;;;25.90;18.60;;;;;;5095693;28;20476;-77
2022/07/20 00:57:13;;;;;;;11.03;6.63;;;25.90;18.80;;;;;;5099153;28;20449;-79
2022/07/20 00:59:39;;;;;;;6.40;5.80;;;26.00;18.40;;;;;;5101244;28;20436;-78
2022/07/20 01:02:06;;;;;;;7.13;6.43;;;26.10;18.40;;;;;;5095966;28;20756;-79
2022/07/20 01:04:34;;;;;;;7.27;6.40;;;26.00;18.60;;;;;;5098059;28;20496;-78
2022/07/20 01:07:02;;;;;;;8.93;6.83;;;26.00;18.70;;;;;;5097405;28;20479;-77
2022/07/20 01:09:29;;;;;;;8.00;6.97;;;25.90;18.80;;;;;;5098893;28;20535;-78
2022/07/20 01:11:56;;;;;;;9.83;7.07;;;25.90;18.90;;;;;;5109068;28;20532;-77
2022/07/20 01:14:23;;;;;;;9.43;7.23;;;25.80;19.70;;;;;;5105447;28;20484;-78
2022/07/20 01:16:50;;;;;;;7.33;6.67;;;25.80;19.20;;;;;;5099799;28;20447;-78
2022/07/20 01:19:16;;;;;;;8.33;6.90;;;25.80;19.20;;;;;;5099327;28;20562;-79
2022/07/20 01:21:45;;;;;;;7.10;6.43;;;25.70;19.90;;;;;;5103149;28;20433;-77
2022/07/20 01:24:13;;;;;;;8.73;6.07;;;25.70;19.50;;;;;;5099220;28;20487;-77
2022/07/20 01:26:42;;;;;;;6.90;6.20;;;25.60;19.60;;;;;;5099527;28;20461;-79
2022/07/20 01:29:09;;;;;;;8.23;6.70;;;25.50;19.80;;;;;;5109375;28;20867;-78
2022/07/20 01:31:36;;;;;;;9.07;6.73;;;25.40;20.20;;;;;;5109140;28;20527;-78
2022/07/20 01:34:03;;;;;;;6.90;6.20;;;25.30;20.20;;;;;;5102963;28;20487;-77
2022/07/20 01:36:30;;;;;;;7.60;6.83;;;25.20;20.60;;;;;;5094937;28;20455;-77
2022/07/20 01:38:59;;;;;;;10.30;6.70;;;25.10;20.70;;;;;;5102304;28;20455;-76
2022/07/20 01:41:27;;;;;;;7.50;6.80;;;25.00;20.80;;;;;;5116645;28;20507;-77
2022/07/20 01:43:53;;;;;;;9.63;7.43;;;25.00;20.90;;;;;;5109480;28;20505;-80
2022/07/20 01:46:20;;;;;;;9.30;6.63;;;24.90;21.10;;;;;;5107017;28;20428;-75
2022/07/20 01:48:47;;;;;;;6.77;6.17;;;24.90;21.20;;;;;;5110807;28;20458;-77
2022/07/20 01:51:14;;;;;;;7.60;6.00;;;24.90;21.20;;;;;;5115548;28;20451;-76
2022/07/20 01:53:41;;;;;;;13.37;7.50;;;24.90;21.40;;;;;;5108106;28;20447;-76
2022/07/20 01:56:10;;;;;;;10.17;6.90;;;24.90;21.30;;;;;;5112748;28;20535;-75
2022/07/20 01:58:36;;;;;;;8.77;6.70;;;24.90;21.30;;;;;;5109952;28;20443;-78
2022/07/20 02:01:03;;;;;;;9.27;6.60;;;24.80;21.50;;;;;;5111596;28;20474;-81
2022/07/20 02:03:30;;;;;;;7.93;6.70;;;24.80;22.10;;;;;;5116719;28;20443;-80
2022/07/20 02:05:57;;;;;;;7.53;6.83;;;24.80;21.30;;;;;;5110242;28;20536;-78
2022/07/20 02:08:25;;;;;;;10.60;7.47;;;24.80;21.40;;;;;;5100147;28;20907;-78
2022/07/20 02:10:52;;;;;;;8.70;7.27;;;24.80;21.60;;;;;;5100273;28;20455;-77
2022/07/20 02:13:20;;;;;;;7.87;6.87;;;24.80;21.60;;;;;;5096143;28;20517;-78
2022/07/20 02:18:31;;;;;;;12.00;6.67;;;24.70;21.70;;;;;;5094680;28;20463;-78
2022/07/20 02:20:58;;;;;;;8.47;6.90;;;24.70;21.90;;;;;;5094316;28;20450;-79
2022/07/20 02:23:25;;;;;;;8.57;6.27;;;24.60;21.90;;;;;;5098129;28;20454;-80
2022/07/20 02:25:52;;;;;;;7.30;6.30;;;24.60;22.10;;;;;;5097135;28;20472;-79
2022/07/20 02:28:20;;;;;;;10.40;6.80;;;24.50;22.30;;;;;;5098261;28;20931;-78
2022/07/20 02:30:47;;;;;;;8.33;6.50;;;24.50;22.40;;;;;;5097734;28;20448;-77
2022/07/20 02:33:13;;;;;;;8.87;6.30;;;24.40;22.50;;;;;;5104762;28;20458;-78
2022/07/20 02:35:40;;;;;;;8.40;7.00;;;24.40;22.50;;;;;;5111509;28;20552;-77
2022/07/20 02:38:07;;;;;;;10.87;6.70;;;24.40;22.70;;;;;;5114400;28;20441;-77
2022/07/20 02:40:34;;;;;;;6.73;6.03;;;24.30;22.70;;;;;;5096986;28;20824;-77
2022/07/20 02:43:01;;;;;;;10.00;6.30;;;24.30;23.00;;;;;;5095055;28;20552;-76
2022/07/20 02:45:29;;;;;;;8.67;7.10;;;24.30;23.00;;;;;;5094354;28;20462;-78
2022/07/20 02:48:03;;;;;;;6.87;6.13;;;24.30;23.20;;;;;;5096961;28;20458;-78
2022/07/20 02:50:33;;;;;;;6.83;6.13;;;24.20;23.50;;;;;;5096140;28;20987;-84
2022/07/20 02:53:00;;;;;;;8.73;6.13;;;24.20;23.70;;;;;;5096290;28;20808;-78
2022/07/20 02:55:27;;;;;;;10.30;6.63;;;24.10;23.60;;;;;;5096299;28;20801;-82
2022/07/20 02:57:54;;;;;;;6.63;5.93;;;24.00;23.60;;;;;;5103628;28;20502;-76
2022/07/20 03:00:21;;;;;;;8.60;6.17;;;24.00;23.60;;;;;;5100514;28;20424;-79
2022/07/20 03:02:50;;;;;;;8.50;6.70;;;23.90;23.50;;;;;;5106196;28;20462;-78
2022/07/20 03:05:18;;;;;;;7.10;6.50;;;23.90;23.50;;;;;;5104382;28;20504;-79
2022/07/20 03:07:45;;;;;;;8.40;6.40;;;23.80;23.40;;;;;;5114692;28;20451;-77
2022/07/20 03:10:12;;;;;;;11.30;7.13;;;23.80;23.40;;;;;;5116746;28;20452;-81
2022/07/20 03:12:39;;;;;;;8.30;6.70;;;23.70;23.90;;;;;;5119952;28;20457;-75
2022/07/20 03:15:08;;;;;;;8.33;6.73;;;23.60;23.90;;;;;;5121173;28;20508;-77
2022/07/20 03:17:42;;;;;;;11.90;7.43;;;23.60;24.20;;;;;;5121287;28;20466;-76
2022/07/20 03:20:12;;;;;;;7.40;6.70;;;23.60;24.50;;;;;;5120978;28;20448;-75
2022/07/20 03:22:39;;;;;;;9.73;6.60;;;23.50;24.50;;;;;;5116644;28;20446;-78
2022/07/20 03:25:08;;;;;;;11.43;6.20;;;23.50;24.70;;;;;;5106221;28;20475;-77
2022/07/20 03:27:35;;;;;;;9.13;6.63;;;23.40;24.80;;;;;;5109962;28;20504;-77
2022/07/20 03:30:02;;;;;;;9.43;6.80;;;23.40;24.80;;;;;;5102616;28;20472;-77
2022/07/20 03:32:28;;;;;;;7.70;6.50;;;23.40;24.90;;;;;;5098717;28;20816;-78
2022/07/20 03:34:55;;;;;;;11.27;7.43;;;23.30;25.10;;;;;;5100289;28;20835;-77
2022/07/20 03:37:23;;;;;;;10.53;7.07;;;23.20;25.20;;;;;;5101757;28;20498;-77
2022/07/20 03:39:50;;;;;;;9.57;6.50;;;23.20;25.50;;;;;;5098184;28;20453;-77
2022/07/20 03:42:18;;;;;;;7.70;6.90;;;23.10;25.60;;;;;;5098014;28;20451;-78
2022/07/20 03:44:45;;;;;;;12.83;7.00;;;23.10;25.60;;;;;;5097347;28;20535;-78
2022/07/20 03:47:11;;;;;;;8.47;7.00;;;23.00;25.80;;;;;;5097271;28;20451;-77
2022/07/20 03:49:38;;;;;;;7.43;6.63;;;23.00;25.80;;;;;;5096849;28;20457;-77
2022/07/20 03:52:06;;;;;;;9.47;6.80;;;23.00;25.90;;;;;;5100516;28;20457;-78
2022/07/20 03:54:34;;;;;;;9.33;7.70;;;23.00;26.00;;;;;;5102219;28;20562;-77
2022/07/20 03:57:01;;;;;;;8.33;7.50;;;23.00;26.10;;;;;;5096922;28;20453;-78
2022/07/20 03:59:28;;;;;;;10.03;6.73;;;23.00;26.20;;;;;;5096274;28;20830;-77
2022/07/20 04:01:55;;;;;;;10.33;7.00;;;22.90;26.20;;;;;;5096075;28;20454;-77
2022/07/20 04:04:21;;;;;;;8.90;6.87;;;22.90;26.30;;;;;;5095980;28;20493;-78
2022/07/20 04:06:48;;;;;;;8.87;7.27;;;22.90;26.50;;;;;;5096222;28;20497;-78
2022/07/20 04:09:43;;;;;;;7.70;6.90;;;23.00;26.60;;;;;;5097365;28;20496;-78
2022/07/20 04:12:04;;;;;;;7.53;6.83;;;23.00;26.50;;;;;;5097498;28;20452;-77
2022/07/20 04:14:30;;;;;;;8.00;7.20;;;23.10;26.40;;;;;;5097530;28;20482;-78
2022/07/20 04:16:57;;;;;;;9.33;7.40;;;23.00;26.50;;;;;;5096668;28;20833;-77
2022/07/20 04:19:24;;;;;;;14.30;7.17;;;23.00;26.70;;;;;;5076461;28;20452;-79
2022/07/20 04:21:52;;;;;;;12.47;6.97;;;23.00;26.70;;;;;;5078042;28;20444;-78
2022/07/20 04:24:22;;;;;;;8.50;7.40;;;23.10;26.90;;;;;;5078058;28;20491;-77
2022/07/20 04:26:49;;;;;;;8.30;7.40;;;23.20;26.60;;;;;;5077399;28;20458;-78
2022/07/20 04:29:18;;;;;;;6.93;6.33;;;23.20;26.60;;;;;;5078717;28;20460;-76
2022/07/20 04:31:45;;;;;;;9.07;7.03;;;23.20;26.90;;;;;;5079525;28;20485;-78
2022/07/20 04:34:11;;;;;;;6.93;6.23;;;23.20;26.70;;;;;;5076827;28;20452;-77
2022/07/20 04:36:39;;;;;;;7.90;7.07;;;23.20;26.80;;;;;;5076765;28;20824;-77
2022/07/20 04:39:06;;;;;;;11.10;6.57;;;23.30;27.20;;;;;;5076939;28;20455;-78
2022/07/20 04:41:32;;;;;;;8.57;6.70;;;23.50;27.20;;;;;;5076684;28;20524;-78
2022/07/20 04:44:00;;;;;;;14.93;7.60;;;23.50;27.20;;;;;;5077340;28;20927;-76
2022/07/20 04:46:29;;;;;;;13.13;7.43;;;23.60;27.00;;;;;;5077984;28;20444;-76
2022/07/20 04:48:56;;;;;;;9.20;7.30;;;23.70;26.90;;;;;;5078675;28;20448;-77
2022/07/20 04:51:23;;;;;;;8.27;7.37;;;23.80;26.90;;;;;;5077744;28;20453;-78
2022/07/20 04:53:51;;;;;;;8.70;7.73;;;23.90;27.20;;;;;;5077353;28;20691;-77
2022/07/20 04:56:19;;;;;;;8.60;7.10;;;24.00;27.20;;;;;;5077199;28;20781;-77
2022/07/20 04:58:50;;;;;;;10.70;7.50;;;24.10;27.00;;;;;;5078535;28;20448;-76
2022/07/20 05:01:17;;;;;;;12.47;7.50;;;24.20;26.70;;;;;;5080350;28;20840;-77
2022/07/20 05:03:45;;;;;;;12.03;7.17;;;24.30;26.90;;;;;;5077080;28;20479;-76
2022/07/20 05:06:12;;;;;;;9.03;7.63;;;24.50;26.30;;;;;;5075071;28;20590;-77
2022/07/20 05:08:39;;;;;;;8.70;6.50;;;25.00;25.60;;;;;;5075718;28;20467;-77
2022/07/20 05:11:06;;;;;;;9.30;6.07;;;25.70;24.70;;;;;;5075134;28;20490;-76
2022/07/20 05:13:33;;;;;;;7.00;6.30;;;26.40;24.30;;;;;;5075963;28;20455;-78
2022/07/20 05:16:00;;;;;;;7.20;6.47;;;27.10;23.30;;;;;;5076074;28;20470;-77
2022/07/20 05:18:28;;;;;;;10.23;7.30;;;27.60;22.60;;;;;;5087478;28;20877;-77
2022/07/20 05:20:56;;;;;;;11.00;7.00;;;28.00;21.90;;;;;;5115014;28;20518;-80
2022/07/20 05:23:23;;;;;;;11.40;7.10;;;28.10;21.80;;;;;;5117483;28;20443;-83
2022/07/20 05:25:50;;;;;;;10.60;6.57;;;28.40;22.30;;;;;;5118296;28;20471;-79
2022/07/20 05:28:20;;;;;;;7.67;6.87;;;28.10;21.90;;;;;;5117976;28;20447;-85
2022/07/20 05:30:47;;;;;;;8.80;6.50;;;28.80;21.50;;;;;;5117267;28;20675;-82
2022/07/20 05:33:14;;;;;;;8.07;7.27;;;29.10;20.70;;;;;;5116289;28;20493;-82
2022/07/20 05:35:41;;;;;;;7.70;6.80;;;29.30;20.60;;;;;;5117199;28;20474;-82
2022/07/20 05:38:09;;;;;;;8.87;6.57;;;29.50;20.20;;;;;;5113749;28;20447;-80
2022/07/20 05:40:36;;;;;;;7.83;7.00;;;29.80;19.80;;;;;;5104406;28;20455;-77
2022/07/20 05:43:03;;;;;;;8.73;6.87;;;30.30;18.70;;;;;;5105847;28;20452;-79
2022/07/20 05:45:30;;;;;;;11.13;7.20;;;30.70;19.00;;;;;;5099193;28;20487;-78
2022/07/20 05:47:57;;;;;;;8.10;7.27;;;30.40;18.70;;;;;;5098944;28;20462;-79
2022/07/20 05:50:24;;;;;;;10.33;7.20;;;30.60;18.80;;;;;;5098480;28;20541;-77
2022/07/20 05:52:51;;;;;;;10.33;7.13;;;30.70;18.70;;;;;;5096870;28;20459;-76
2022/07/20 05:55:21;;;;;;;12.80;7.07;;;31.10;17.90;;;;;;5096697;28;20990;-77
2022/07/20 05:57:48;;;;;;;7.43;6.50;;;31.70;17.30;;;;;;5097695;28;20438;-77
2022/07/20 06:00:16;;;;;;;12.07;6.00;;;31.80;17.20;;;;;;5099685;28;20852;-77
2022/07/20 06:02:43;;;;;;;14.93;7.47;;;31.30;17.60;;;;;;5100550;28;20464;-81
2022/07/20 06:05:11;;;;;;;12.90;6.50;;;31.20;17.80;;;;;;5098487;28;20641;-79
2022/07/20 06:07:38;;;;;;;9.43;6.80;;;31.60;17.20;;;;;;5098565;28;20450;-77
2022/07/20 06:10:06;;;;;;;9.73;6.93;;;31.60;17.10;;;;;;5100584;28;20523;-76
2022/07/20 06:12:34;;;;;;;8.80;6.80;;;31.40;17.20;;;;;;5101329;28;20534;-78
2022/07/20 06:15:01;;;;;;;8.17;6.60;;;30.60;18.50;;;;;;5099876;28;20468;-78
2022/07/20 06:17:34;;;;;;;13.07;6.93;;;29.80;19.00;;;;;;5099524;28;20455;-78
2022/07/20 06:20:05;;;;;;;11.80;6.43;;;29.30;20.20;;;;;;5101569;28;20439;-79
2022/07/20 06:22:32;;;;;;;8.30;7.47;;;30.00;19.50;;;;;;5102961;28;20444;-78
2022/07/20 06:24:59;;;;;;;7.50;6.80;;;30.80;18.90;;;;;;5100925;28;20500;-78
2022/07/20 06:27:26;;;;;;;7.87;6.80;;;31.60;17.30;;;;;;5097983;28;20545;-77
2022/07/20 06:29:54;;;;;;;8.87;6.27;;;31.90;16.80;;;;;;5099110;28;20444;-77
2022/07/20 06:32:21;;;;;;;29.70;7.20;;;32.50;15.80;;;;;;5101633;28;20461;-79
2022/07/20 06:34:48;;;;;;;11.20;6.50;;;32.50;15.80;;;;;;5105987;28;20465;-78
2022/07/20 06:37:15;;;;;;;14.13;7.00;;;32.40;16.10;;;;;;5103197;28;20447;-78
2022/07/20 06:39:42;;;;;;;9.97;6.60;;;32.70;15.60;;;;;;5111044;28;20446;-80
2022/07/20 06:42:09;;;;;;;7.20;6.53;;;32.80;15.20;;;;;;5113822;28;20521;-78
2022/07/20 06:44:36;;;;;;;12.80;6.47;;;32.90;15.70;;;;;;5114114;28;20553;-80
2022/07/20 06:47:05;;;;;;;8.10;6.37;;;32.80;15.70;;;;;;5111988;28;20521;-78
2022/07/20 06:49:32;;;;;;;11.93;7.13;;;33.20;15.10;;;;;;5112573;28;20535;-78
2022/07/20 06:52:00;;;;;;;7.03;6.33;;;33.30;14.90;;;;;;5109863;28;20819;-77
2022/07/20 06:54:27;;;;;;;7.83;6.00;;;33.10;15.30;;;;;;5105424;28;20480;-79
2022/07/20 06:56:54;;;;;;;9.07;5.77;;;33.20;15.20;;;;;;5107615;28;20479;-77
2022/07/20 06:59:22;;;;;;;10.40;6.27;;;32.90;15.30;;;;;;5097872;28;20832;-77
2022/07/20 07:01:49;;;;;;;11.60;6.83;;;32.50;15.50;;;;;;5095062;28;20467;-78
2022/07/20 07:04:18;;;;;;;13.50;6.67;;;31.90;16.50;;;;;;5094915;28;20823;-78
2022/07/20 07:06:45;;;;;;;7.10;6.40;;;31.00;17.30;;;;;;5095211;28;20514;-78
2022/07/20 07:09:12;;;;;;;12.10;7.60;;;30.20;18.60;;;;;;5098441;28;20458;-79
2022/07/20 07:11:39;;;;;;;14.67;7.20;;;29.80;18.40;;;;;;5103003;28;20439;-77
2022/07/20 07:14:06;;;;;;;7.00;6.20;;;29.40;19.60;;;;;;5107816;28;20476;-79
2022/07/20 07:16:33;;;;;;;10.40;7.00;;;29.50;19.70;;;;;;5111538;28;20480;-79
2022/07/20 07:19:00;;;;;;;16.67;7.13;;;29.40;19.70;;;;;;5105006;28;20543;-77
2022/07/20 07:21:28;;;;;;;16.53;7.63;;;29.40;19.70;;;;;;5096907;28;20535;-78
2022/07/20 07:23:55;;;;;;;8.83;6.33;;;29.40;19.60;;;;;;5097091;28;20548;-82
2022/07/20 07:26:23;;;;;;;8.10;7.30;;;29.30;19.80;;;;;;5100708;28;20493;-78
2022/07/20 07:28:50;;;;;;;13.90;6.97;;;29.30;19.70;;;;;;5098927;28;20459;-78
2022/07/20 07:31:18;;;;;;;8.97;7.00;;;29.30;20.00;;;;;;5097987;28;20459;-79
2022/07/20 07:33:48;;;;;;;8.10;7.30;;;29.50;19.70;;;;;;5098890;28;20460;-79
2022/07/20 07:36:15;;;;;;;10.73;6.87;;;29.40;19.60;;;;;;5097034;28;20475;-78
2022/07/20 07:38:44;;;;;;;8.00;7.20;;;29.50;19.40;;;;;;5095086;28;20457;-78
2022/07/20 07:41:11;;;;;;;11.83;6.77;;;29.60;19.50;;;;;;5096568;28;20478;-78
2022/07/20 07:43:38;;;;;;;8.40;7.10;;;29.60;20.20;;;;;;5094511;28;20458;-79
2022/07/20 07:46:05;;;;;;;7.50;6.07;;;29.70;19.40;;;;;;5094427;28;20495;-78
2022/07/20 07:48:33;;;;;;;8.87;7.33;;;29.70;19.40;;;;;;5096786;28;20461;-80
2022/07/20 07:50:59;;;;;;;9.50;6.47;;;29.80;19.80;;;;;;5095941;28;20476;-77
2022/07/20 07:53:26;;;;;;;11.47;6.63;;;29.80;18.90;;;;;;5095096;28;20538;-78
2022/07/20 07:55:54;;;;;;;8.23;7.40;;;29.90;19.00;;;;;;5095520;28;20480;-77
2022/07/20 07:58:21;;;;;;;10.70;6.53;;;30.10;19.10;;;;;;5097751;28;20453;-79
2022/07/20 08:00:49;;;;;;;9.63;7.53;;;30.10;19.20;;;;;;5098561;28;20519;-79
2022/07/20 08:03:16;;;;;;;11.80;6.33;;;30.20;18.60;;;;;;5103257;28;20471;-79
2022/07/20 08:05:43;;;;;;;10.13;6.40;;;30.20;18.60;;;;;;5109836;28;20486;-80
2022/07/20 08:08:12;;;;;;;9.67;8.00;;;30.30;18.70;;;;;;5106917;28;20556;-79
2022/07/20 08:10:39;;;;;;;11.37;7.60;;;30.30;18.70;;;;;;5106776;28;20437;-78
2022/07/20 08:13:08;;;;;;;11.20;6.90;;;30.10;19.40;;;;;;5104522;28;20470;-77
2022/07/20 08:15:35;;;;;;;12.20;6.60;;;30.10;19.30;;;;;;5106736;28;20466;-80
2022/07/20 08:18:02;;;;;;;12.10;6.93;;;30.20;19.70;;;;;;5107580;28;20467;-79
2022/07/20 08:20:29;;;;;;;11.57;7.20;;;30.30;19.30;;;;;;5102502;28;20461;-78
2022/07/20 08:22:56;;;;;;;9.40;6.40;;;30.40;18.70;;;;;;5103497;28;20460;-78
2022/07/20 08:25:23;;;;;;;10.40;6.50;;;30.60;18.80;;;;;;5107526;28;20479;-79
2022/07/20 08:27:51;;;;;;;16.40;7.17;;;30.80;18.90;;;;;;5103080;28;20567;-79
2022/07/20 08:30:20;;;;;;;11.20;8.80;;;30.80;19.00;;;;;;5101064;28;20497;-78
2022/07/20 08:32:47;;;;;;;9.97;8.70;;;30.90;19.00;;;;;;5098459;28;20455;-78
2022/07/20 08:35:14;;;;;;;12.00;8.67;;;30.90;19.00;;;;;;5099126;28;20562;-78
2022/07/20 08:37:41;;;;;;;11.87;9.80;;;30.90;19.00;;;;;;5098597;28;20436;-77
2022/07/20 08:40:09;;;;;;;12.17;11.07;;;30.90;19.00;;;;;;5097579;28;20452;-79
2022/07/20 08:42:36;;;;;;;13.20;10.60;;;31.00;19.50;;;;;;5100768;28;20443;-78
2022/07/20 08:45:03;;;;;;;13.20;10.70;;;31.00;20.20;;;;;;5098133;28;20472;-77
2022/07/20 08:47:35;;;;;;;15.47;11.13;;;31.10;20.10;;;;;;5100126;28;20488;-80
2022/07/20 08:50:03;;;;;;;19.47;12.53;;;31.20;20.50;;;;;;5099335;28;20441;-78
2022/07/20 08:52:29;;;;;;;17.10;13.10;;;31.20;21.00;;;;;;5099872;28;20833;-79
2022/07/20 08:54:56;;;;;;;18.30;14.07;;;31.30;21.10;;;;;;5104397;28;20465;-77
2022/07/20 08:57:23;;;;;;;13.50;12.23;;;31.30;22.20;;;;;;5101557;28;20444;-78
2022/07/20 08:59:50;;;;;;;15.73;13.60;;;31.40;21.50;;;;;;5096237;28;20459;-78
2022/07/20 09:02:17;;;;;;;18.80;14.17;;;31.40;22.00;;;;;;5095690;28;20819;-78
2022/07/20 09:04:53;;;;;;;16.23;14.60;;;31.50;22.20;;;;;;5095427;28;20467;-79
2022/07/20 09:07:38;;;;;;;18.63;16.70;;;31.70;22.40;;;;;;5099539;28;20488;-79
2022/07/20 09:10:08;;;;;;;19.47;15.87;;;31.70;22.70;;;;;;5097978;28;20490;-78
2022/07/20 09:12:53;;;;;;;18.47;16.50;;;31.80;22.90;;;;;;5099628;28;20444;-77
2022/07/20 09:15:30;;;;;;;21.33;17.50;;;31.90;22.80;;;;;;5101221;28;20474;-79
2022/07/20 09:18:12;;;;;;;22.33;20.10;;;32.10;22.70;;;;;;5100482;28;20489;-78
2022/07/20 09:20:48;;;;;;;21.23;19.00;;;32.20;22.40;;;;;;5101558;28;20520;-78
2022/07/20 09:23:17;;;;;;;20.70;18.60;;;32.00;22.50;;;;;;5104650;28;20463;-78
2022/07/20 09:25:57;;;;;;;21.03;19.33;;;31.80;22.70;;;;;;5103599;28;20480;-79
2022/07/20 09:28:35;;;;;;;26.83;19.03;;;31.60;23.30;;;;;;5102516;28;20454;-79
2022/07/20 09:31:02;;;;;;;22.00;18.67;;;31.70;23.10;;;;;;5100668;28;20547;-79
2022/07/20 09:33:30;;;;;;;22.63;20.23;;;31.70;23.20;;;;;;5101893;28;20536;-79
2022/07/20 09:36:12;;;;;;;21.47;19.40;;;31.80;23.10;;;;;;5112432;28;20457;-78
2022/07/20 09:38:42;;;;;;;20.63;18.50;;;32.10;22.80;;;;;;5104709;28;21017;-79
2022/07/20 09:41:23;;;;;;;21.23;19.03;;;32.30;22.60;;;;;;5103983;28;20440;-79
2022/07/20 09:43:56;;;;;;;22.90;17.53;;;32.40;22.40;;;;;;5108632;28;20446;-85
2022/07/20 09:46:37;;;;;;;19.57;17.50;;;32.40;22.30;;;;;;5116625;28;20466;-83
2022/07/20 09:49:06;;;;;;;19.17;17.40;;;32.50;22.00;;;;;;5113303;28;20438;-77
2022/07/20 09:51:36;;;;;;;24.20;18.83;;;32.70;21.80;;;;;;5112597;28;20450;-78
2022/07/20 09:54:05;;;;;;;20.40;18.13;;;32.90;21.80;;;;;;5113532;28;20439;-76
2022/07/20 09:56:34;;;;;;;21.63;16.50;;;33.20;21.30;;;;;;5113561;28;20474;-78
2022/07/20 09:59:04;;;;;;;19.67;17.50;;;33.20;21.30;;;;;;5113903;28;20519;-78
2022/07/20 10:01:33;;;;;;;18.80;16.30;;;33.10;21.20;;;;;;5110644;28;20432;-78
2022/07/20 10:04:02;;;;;;;17.80;15.97;;;33.10;21.70;;;;;;5108286;28;20448;-79
2022/07/20 10:06:29;;;;;;;20.77;16.40;;;33.10;21.50;;;;;;5100919;28;20524;-78
2022/07/20 10:08:58;;;;;;;18.63;16.37;;;32.90;21.70;;;;;;5103553;28;20549;-79
2022/07/20 10:11:26;;;;;;;18.27;16.37;;;32.90;21.70;;;;;;5107652;28;20435;-79
2022/07/20 10:13:55;;;;;;;17.97;16.37;;;33.00;21.90;;;;;;5103524;28;20520;-79
2022/07/20 10:16:28;;;;;;;19.13;16.13;;;33.10;21.90;;;;;;5103032;28;20971;-78
2022/07/20 10:18:56;;;;;;;20.83;15.97;;;33.10;21.70;;;;;;5102066;28;20477;-78
2022/07/20 10:21:34;;;;;;;26.17;16.63;;;33.10;22.10;;;;;;5103804;28;20458;-80
2022/07/20 10:24:25;;;;;;;20.73;17.70;;;33.20;22.00;;;;;;5104070;28;20546;-78
2022/07/20 10:26:54;;;;;;;19.17;15.73;;;33.40;21.70;;;;;;5115631;28;20585;-78
2022/07/20 10:29:32;;;;;;;20.33;16.63;;;33.40;21.80;;;;;;5116380;28;20443;-76
2022/07/20 10:32:11;;;;;;;18.17;16.30;;;33.50;22.00;;;;;;5117149;28;20498;-78
2022/07/20 10:34:40;;;;;;;18.50;16.60;;;33.50;21.60;;;;;;5114150;28;20475;-78
2022/07/20 10:37:31;;;;;;;19.63;17.40;;;33.40;21.60;;;;;;5101031;28;20511;-78
2022/07/20 10:40:09;;;;;;;19.07;17.07;;;33.30;21.80;;;;;;5098165;28;20904;-79
2022/07/20 10:42:39;;;;;;;18.83;15.97;;;33.60;21.40;;;;;;5102147;28;20827;-79
2022/07/20 10:45:29;;;;;;;18.47;16.63;;;33.50;21.10;;;;;;5102025;28;20509;-82
2022/07/20 10:47:57;;;;;;;17.67;16.17;;;33.50;21.20;;;;;;5102547;28;20494;-79
2022/07/20 10:50:30;;;;;;;20.07;18.07;;;33.60;21.50;;;;;;5102272;28;20471;-80
2022/07/20 10:52:59;;;;;;;20.30;18.17;;;33.60;22.00;;;;;;5099853;28;20445;-78
2022/07/20 10:55:51;;;;;;;17.97;15.87;;;33.70;21.60;;;;;;5100825;28;20495;-78
2022/07/20 10:58:21;;;;;;;19.30;16.07;;;33.80;20.60;;;;;;5099595;28;20438;-78
2022/07/20 11:00:50;;;;;;;17.37;15.60;;;33.80;20.60;;;;;;5110931;28;20439;-77
2022/07/20 11:03:19;;;;;;;18.13;16.33;;;33.80;20.60;;;;;;5117262;28;20433;-76
2022/07/20 11:05:48;;;;;;;21.97;18.13;;;33.70;20.70;;;;;;5116321;28;20479;-77
2022/07/20 11:08:15;;;;;;;19.57;17.23;;;33.90;21.10;;;;;;5114900;28;20494;-77
2022/07/20 11:10:43;;;;;;;19.30;17.37;;;34.20;20.80;;;;;;5116604;28;20451;-76
2022/07/20 11:13:13;;;;;;;18.07;16.30;;;34.30;20.90;;;;;;5117165;28;20449;-77
2022/07/20 11:15:42;;;;;;;19.93;17.50;;;34.60;20.60;;;;;;5116732;28;20479;-77
2022/07/20 11:18:10;;;;;;;17.10;15.30;;;34.70;20.40;;;;;;5116549;28;20517;-75
2022/07/20 11:20:46;;;;;;;18.90;16.90;;;34.80;19.80;;;;;;5116627;28;20471;-76
2022/07/20 11:23:13;;;;;;;21.17;15.70;;;34.60;20.30;;;;;;5116765;28;20477;-77
2022/07/20 11:25:51;;;;;;;21.23;16.47;;;34.50;19.90;;;;;;5116277;28;20528;-76
2022/07/20 11:28:22;;;;;;;18.47;15.90;;;34.50;19.70;;;;;;5116486;28;20502;-78
2022/07/20 11:30:50;;;;;;;18.27;16.57;;;34.40;19.80;;;;;;5116489;28;20431;-76
2022/07/20 11:33:28;;;;;;;16.50;14.80;;;34.40;20.20;;;;;;5120323;28;20449;-76
2022/07/20 11:35:57;;;;;;;17.20;15.50;;;34.40;19.40;;;;;;5120114;28;20461;-78
2022/07/20 11:38:33;;;;;;;23.07;15.37;;;34.40;19.70;;;;;;5120570;28;20498;-75
2022/07/20 11:41:01;;;;;;;17.47;15.87;;;34.30;20.00;;;;;;5120656;28;20482;-78
2022/07/20 11:43:30;;;;;;;17.27;15.47;;;34.30;20.70;;;;;;5120649;28;20428;-76
2022/07/20 11:46:13;;;;;;;16.90;15.30;;;34.30;20.30;;;;;;5121013;28;20461;-78
2022/07/20 11:48:40;;;;;;;17.37;15.33;;;34.40;20.90;;;;;;5121251;28;20437;-75
2022/07/20 11:51:07;;;;;;;17.20;15.27;;;34.50;20.40;;;;;;5121091;28;20434;-77
2022/07/20 11:53:38;;;;;;;16.77;15.17;;;34.70;19.50;;;;;;5121190;28;20425;-78
2022/07/20 11:56:10;;;;;;;21.67;16.07;;;34.90;18.80;;;;;;5120962;28;20507;-76
2022/07/20 11:58:40;;;;;;;17.07;15.50;;;34.80;19.10;;;;;;5121227;28;20489;-77
2022/07/20 12:01:09;;;;;;;15.87;14.27;;;34.90;19.10;;;;;;5120669;28;20459;-76
2022/07/20 12:03:37;;;;;;;18.40;16.30;;;35.00;18.70;;;;;;5119852;28;20455;-79
2022/07/20 12:06:07;;;;;;;16.80;15.20;;;35.10;18.20;;;;;;5119796;28;20509;-78
2022/07/20 12:08:34;;;;;;;14.90;13.70;;;35.00;18.40;;;;;;5113905;28;20526;-79
2022/07/20 12:11:06;;;;;;;15.97;14.47;;;35.00;17.60;;;;;;5113545;28;20476;-81
2022/07/20 12:13:46;;;;;;;18.27;15.30;;;35.00;17.70;;;;;;5109242;28;20420;-79
2022/07/20 12:16:13;;;;;;;15.27;13.50;;;34.80;18.00;;;;;;5109988;28;20451;-79
2022/07/20 12:18:44;;;;;;;16.40;14.80;;;34.80;17.90;;;;;;5108966;28;20457;-79
2022/07/20 12:21:14;;;;;;;15.17;13.87;;;34.80;17.80;;;;;;5104759;28;20973;-79
2022/07/20 12:23:43;;;;;;;16.90;14.90;;;34.50;18.00;;;;;;5105624;28;20463;-79
2022/07/20 12:26:26;;;;;;;16.73;14.57;;;34.30;18.50;;;;;;5107628;28;20464;-80
2022/07/20 12:28:55;;;;;;;16.07;14.50;;;34.30;18.60;;;;;;5116898;28;20483;-79
2022/07/20 12:31:24;;;;;;;16.17;14.23;;;34.40;18.30;;;;;;5108358;28;20849;-79
2022/07/20 12:34:01;;;;;;;15.23;13.73;;;34.40;18.30;;;;;;5107570;28;20460;-79
2022/07/20 12:36:33;;;;;;;14.83;13.47;;;34.30;18.60;;;;;;5111952;28;20446;-80
2022/07/20 12:39:00;;;;;;;17.80;14.57;;;34.50;18.40;;;;;;5111378;28;20578;-80
2022/07/20 12:41:27;;;;;;;17.37;15.33;;;35.00;18.20;;;;;;5112105;28;20472;-80
2022/07/20 12:43:55;;;;;;;18.60;14.37;;;35.30;17.80;;;;;;5110974;28;20453;-81
2022/07/20 12:46:22;;;;;;;15.10;13.80;;;35.70;17.30;;;;;;5115195;28;20541;-81
2022/07/20 12:48:51;;;;;;;16.67;15.00;;;35.90;17.10;;;;;;5116932;28;20549;-79
2022/07/20 12:51:18;;;;;;;19.30;14.27;;;36.00;16.80;;;;;;5118926;28;20442;-77